Time;durP1;ratioP1;P1;durP2;ratioP2;P2;SDS_P1;SDS_P2;PMS_P1;PMS_P2;Temp;Humidity;BMP_temperature;BMP_pressure;BME280_temperature;BME280_humidity;BME280_pressure;Samples;Min_cycle;Max_cycle;Signal;HPM_P1;HPM_P2
2022/05/30 00:00:21;;;;;;;;;30.75;27.00;26.90;99.90;;;;;;5038402;28;8791;-63
2022/05/30 00:02:49;;;;;;;;;32.50;26.00;27.00;99.90;;;;;;5037669;28;8859;-64
2022/05/30 00:05:16;;;;;;;;;39.50;32.50;26.90;99.90;;;;;;5038474;28;8773;-64
2022/05/30 00:07:42;;;;;;;;;32.00;25.25;26.90;99.90;;;;;;5038256;28;8786;-64
2022/05/30 00:10:10;;;;;;;;;29.00;19.25;26.90;99.90;;;;;;5039336;28;8749;-64
2022/05/30 00:12:36;;;;;;;;;26.50;22.00;26.90;99.90;;;;;;5020749;28;8793;-64
2022/05/30 00:15:05;;;;;;;;;36.75;30.25;26.90;99.90;;;;;;5038613;28;8760;-63
2022/05/30 00:17:31;;;;;;;;;37.50;29.50;26.90;99.90;;;;;;5038236;28;9483;-63
2022/05/30 00:19:58;;;;;;;;;39.50;30.50;26.90;99.90;;;;;;5038499;28;8765;-64
2022/05/30 00:22:25;;;;;;;;;43.25;29.00;26.80;99.90;;;;;;5038608;28;8756;-64
2022/05/30 00:24:52;;;;;;;;;42.25;32.25;26.90;99.90;;;;;;5038755;28;9467;-63
2022/05/30 00:27:18;;;;;;;;;35.00;32.25;26.90;99.90;;;;;;5038173;28;9471;-63
2022/05/30 00:29:45;;;;;;;;;40.50;32.75;27.00;99.90;;;;;;5038105;28;8753;-64
2022/05/30 00:32:12;;;;;;;;;31.50;27.75;27.10;99.90;;;;;;5038252;28;8789;-64
2022/05/30 00:34:39;;;;;;;;;37.00;30.00;27.00;99.90;;;;;;5038057;28;8761;-64
2022/05/30 00:37:05;;;;;;;;;34.25;30.25;27.00;99.90;;;;;;5037782;28;8807;-64
2022/05/30 00:39:32;;;;;;;;;38.50;32.50;27.10;99.90;;;;;;5037611;28;8760;-64
2022/05/30 00:42:13;;;;;;;;;38.25;31.75;27.10;99.90;;;;;;5036966;28;9503;-68
2022/05/30 00:44:41;;;;;;;;;37.25;29.00;27.20;99.90;;;;;;5019677;28;8749;-68
2022/05/30 00:47:08;;;;;;;;;32.00;23.50;27.20;99.90;;;;;;5036701;28;8768;-66
2022/05/30 00:49:35;;;;;;;;;41.75;31.00;27.40;99.90;;;;;;5008238;28;9480;-66
2022/05/30 00:52:05;;;;;;;;;39.75;34.25;27.80;99.90;;;;;;5020220;28;9445;-67
2022/05/30 00:54:38;;;;;;;;;39.25;31.50;28.40;99.90;;;;;;5035742;28;8843;-68
2022/05/30 00:57:20;;;;;;;;;28.25;25.75;27.60;99.90;;;;;;5019165;28;9058;-67
2022/05/30 00:59:59;;;;;;;;;35.75;29.50;27.80;99.90;;;;;;5009360;28;8773;-68
2022/05/30 01:02:28;;;;;;;;;46.50;32.50;28.00;99.90;;;;;;5003343;28;8789;-71
2022/05/30 01:07:41;;;;;;;;;38.00;30.75;27.50;99.90;;;;;;5021165;28;8757;-68
2022/05/30 01:10:12;;;;;;;;;37.75;29.50;28.30;99.90;;;;;;5019326;28;8767;-67
2022/05/30 01:12:45;;;;;;;;;32.25;29.50;28.50;99.90;;;;;;5017441;28;8816;-68
2022/05/30 01:15:14;;;;;;;;;40.50;27.00;29.00;99.90;;;;;;5036048;28;8768;-67
2022/05/30 01:17:58;;;;;;;;;37.25;28.00;28.90;99.90;;;;;;5036592;28;8773;-67
2022/05/30 01:21:03;;;;;;;;;37.25;30.50;28.80;99.90;;;;;;5034728;28;9416;-67
2022/05/30 01:23:44;;;;;;;;;24.50;20.00;28.80;99.90;;;;;;5020979;28;8745;-67
2022/05/30 01:26:31;;;;;;;;;30.50;25.00;29.10;99.90;;;;;;5037501;28;8945;-67
2022/05/30 01:29:12;;;;;;;;;24.50;19.75;28.90;99.90;;;;;;5035917;28;8792;-67
2022/05/30 01:31:39;;;;;;;;;26.50;24.75;29.20;99.90;;;;;;5018538;28;8768;-67
2022/05/30 01:34:06;;;;;;;;;26.40;23.20;28.70;99.90;;;;;;5037422;28;9492;-67
2022/05/30 01:36:33;;;;;;;;;21.25;21.00;28.70;99.90;;;;;;5035023;28;8787;-67
2022/05/30 01:38:59;;;;;;;;;28.75;22.75;29.10;99.90;;;;;;5017713;28;8756;-68
2022/05/30 01:41:27;;;;;;;;;22.60;20.40;29.20;99.90;;;;;;5035519;28;8808;-62
2022/05/30 01:43:57;;;;;;;;;33.20;23.60;29.60;99.90;;;;;;5014896;28;8849;-63
2022/05/30 01:46:26;;;;;;;;;17.40;15.60;29.20;99.90;;;;;;5016376;28;8869;-68
2022/05/30 01:48:53;;;;;;;;;21.75;21.00;29.60;99.90;;;;;;5015676;28;8750;-64
2022/05/30 01:51:23;;;;;;;;;29.50;25.50;29.40;99.90;;;;;;4998656;28;8779;-63
2022/05/30 01:53:50;;;;;;;;;20.25;18.00;29.50;99.90;;;;;;5016729;28;8774;-63
2022/05/30 01:56:18;;;;;;;;;32.00;26.25;29.60;99.90;;;;;;4997563;28;9474;-63
2022/05/30 01:58:45;;;;;;;;;22.75;17.25;29.30;99.90;;;;;;5032474;28;8867;-71
2022/05/30 02:01:18;;;;;;;;;23.75;21.25;29.70;99.90;;;;;;5018132;28;8897;-65
2022/05/30 02:03:48;;;;;;;;;28.00;23.50;29.50;99.90;;;;;;4986312;28;8777;-65
2022/05/30 02:06:15;;;;;;;;;21.40;18.00;29.50;99.90;;;;;;5036026;28;8781;-64
2022/05/30 02:08:42;;;;;;;;;26.25;18.75;29.80;99.90;;;;;;5036067;28;10606;-64
2022/05/30 02:11:10;;;;;;;;;20.50;19.00;29.80;99.90;;;;;;5036225;28;8777;-64
2022/05/30 02:13:37;;;;;;;;;28.25;23.25;29.70;99.90;;;;;;5036257;28;9056;-64
2022/05/30 02:18:50;;;;;;;;;23.25;18.25;30.20;99.90;;;;;;5021839;28;8754;-64
2022/05/30 02:21:17;;;;;;;;;21.75;18.50;30.60;99.90;;;;;;5036425;28;8805;-63
2022/05/30 02:23:44;;;;;;;;;24.00;17.50;30.10;99.90;;;;;;5035567;28;8868;-65
2022/05/30 02:26:11;;;;;;;;;27.75;22.75;30.10;99.90;;;;;;5039907;28;8781;-65
2022/05/30 02:28:37;;;;;;;;;23.75;17.25;30.10;99.90;;;;;;5040876;28;8753;-64
2022/05/30 02:31:04;;;;;;;;;31.75;21.00;30.20;99.90;;;;;;5024795;28;8789;-64
2022/05/30 02:39:03;;;;;;;;;20.75;13.50;31.00;99.90;;;;;;5040294;28;8864;-63
2022/05/30 02:41:29;;;;;;;;;22.25;17.00;30.30;99.90;;;;;;5039596;28;9445;-62
2022/05/30 02:43:56;;;;;;;;;30.80;22.20;30.60;99.90;;;;;;5040848;28;9397;-64
2022/05/30 02:46:23;;;;;;;;;26.60;20.80;30.00;99.90;;;;;;5040718;28;9386;-65
2022/05/30 02:48:50;;;;;;;;;22.50;19.50;29.50;99.90;;;;;;5040180;28;8768;-77
2022/05/30 02:51:17;;;;;;;;;23.50;15.25;29.70;99.90;;;;;;5006215;28;8799;-70
2022/05/30 02:53:43;;;;;;;;;22.50;17.25;30.80;99.90;;;;;;5039583;28;8804;-70
2022/05/30 02:56:13;;;;;;;;;23.50;19.25;30.80;99.90;;;;;;5038993;28;8789;-74
2022/05/30 02:58:39;;;;;;;;;26.25;19.00;30.80;99.90;;;;;;4989883;28;8817;-76
2022/05/30 03:01:06;;;;;;;;;21.25;13.00;30.90;99.90;;;;;;5006432;28;8862;-65
2022/05/30 03:03:33;;;;;;;;;32.75;21.00;29.70;99.90;;;;;;5005738;28;8940;-66
2022/05/30 03:05:59;;;;;;;;;24.25;21.75;30.10;99.90;;;;;;5040109;28;8761;-70
2022/05/30 03:08:26;;;;;;;;;19.25;19.00;29.80;99.90;;;;;;5039183;28;8769;-66
2022/05/30 03:10:56;;;;;;;;;24.75;19.00;30.80;99.90;;;;;;5021902;28;8803;-65
2022/05/30 03:13:22;;;;;;;;;24.25;20.75;30.90;99.90;;;;;;5039873;28;8752;-67
2022/05/30 03:15:49;;;;;;;;;21.00;17.00;31.00;99.90;;;;;;5021628;28;8803;-64
2022/05/30 03:18:16;;;;;;;;;16.75;16.25;31.50;99.90;;;;;;5039182;28;8737;-64
2022/05/30 03:20:43;;;;;;;;;27.75;21.75;31.00;99.90;;;;;;5039908;28;8784;-64
2022/05/30 03:23:09;;;;;;;;;18.75;14.25;30.00;99.90;;;;;;5040808;28;8773;-65
2022/05/30 03:25:36;;;;;;;;;13.75;13.75;31.00;99.90;;;;;;5039413;28;8787;-63
2022/05/30 03:28:03;;;;;;;;;25.75;17.75;31.90;99.90;;;;;;5039470;28;8872;-64
2022/05/30 03:30:36;;;;;;;;;16.50;16.50;32.00;99.90;;;;;;5038439;28;8789;-64
2022/05/30 03:33:04;;;;;;;;;26.50;22.00;32.20;99.90;;;;;;5038977;28;9110;-65
2022/05/30 03:35:31;;;;;;;;;23.75;21.00;31.00;99.90;;;;;;5037623;28;9425;-63
2022/05/30 03:37:58;;;;;;;;;24.00;20.50;30.50;99.90;;;;;;5019577;28;9432;-64
2022/05/30 03:40:24;;;;;;;;;23.75;17.25;30.60;99.90;;;;;;5020195;28;8761;-63
2022/05/30 03:42:51;;;;;;;;;21.80;19.20;30.80;99.90;;;;;;5038699;28;8729;-64
2022/05/30 03:45:18;;;;;;;;;27.25;21.75;30.60;99.90;;;;;;5038151;28;8730;-62
2022/05/30 03:47:45;;;;;;;;;25.00;23.50;31.00;99.90;;;;;;5038831;28;9382;-63
2022/05/30 03:50:15;;;;;;;;;25.00;19.80;30.90;99.90;;;;;;5037847;28;8743;-64
2022/05/30 03:52:42;;;;;;;;;23.00;21.25;31.60;99.90;;;;;;5038189;28;9373;-64
2022/05/30 03:55:14;;;;;;;;;27.75;20.00;32.30;99.90;;;;;;5021741;28;8742;-64
2022/05/30 03:57:41;;;;;;;;;23.00;20.00;32.80;99.60;;;;;;5038501;28;8733;-64
2022/05/30 04:00:13;;;;;;;;;21.75;15.00;32.60;99.90;;;;;;5019186;28;8745;-64
2022/05/30 04:02:40;;;;;;;;;15.50;14.00;32.30;99.60;;;;;;5038532;28;8745;-65
2022/05/30 04:05:09;;;;;;;;;19.50;19.50;32.40;99.60;;;;;;5004171;28;8779;-64
2022/05/30 04:07:38;;;;;;;;;22.50;19.50;32.30;99.50;;;;;;5037749;28;9425;-64
2022/05/30 04:10:05;;;;;;;;;22.75;17.25;31.20;99.90;;;;;;5037580;28;8738;-65
2022/05/30 04:12:32;;;;;;;;;14.50;14.00;31.00;99.90;;;;;;5020371;28;8741;-65
2022/05/30 04:15:00;;;;;;;;;27.00;18.00;32.00;99.90;;;;;;5019876;28;8693;-64
2022/05/30 04:17:27;;;;;;;;;21.25;19.00;31.80;99.90;;;;;;5037783;28;8717;-64
2022/05/30 04:19:54;;;;;;;;;25.25;20.00;31.70;99.90;;;;;;5037807;28;8701;-64
2022/05/30 04:22:20;;;;;;;;;21.00;17.75;31.90;99.90;;;;;;5020325;28;9421;-64
2022/05/30 04:24:47;;;;;;;;;23.75;21.75;32.10;99.90;;;;;;5021040;28;8787;-63
2022/05/30 04:27:14;;;;;;;;;20.00;19.75;32.00;99.90;;;;;;5038569;28;8852;-63
2022/05/30 04:29:41;;;;;;;;;23.75;15.25;31.60;99.90;;;;;;5020583;28;8761;-63
2022/05/30 04:32:08;;;;;;;;;21.25;17.00;31.90;99.90;;;;;;5036846;28;8792;-63
2022/05/30 04:34:36;;;;;;;;;23.75;21.75;32.00;99.90;;;;;;5036553;28;9497;-63
2022/05/30 04:37:04;;;;;;;;;23.25;21.00;31.80;99.90;;;;;;5037404;28;8769;-63
2022/05/30 04:39:30;;;;;;;;;23.50;20.50;32.10;99.90;;;;;;5036109;28;8788;-63
2022/05/30 04:41:57;;;;;;;;;24.00;19.75;32.10;99.90;;;;;;5037881;28;8824;-64
2022/05/30 04:44:24;;;;;;;;;25.40;22.00;31.80;99.90;;;;;;5037146;28;8797;-64
2022/05/30 04:46:54;;;;;;;;;20.50;15.00;31.80;99.90;;;;;;5019566;28;8749;-67
2022/05/30 04:49:21;;;;;;;;;25.75;19.50;31.70;99.90;;;;;;5019030;28;8851;-67
2022/05/30 04:51:48;;;;;;;;;22.25;16.75;31.40;99.90;;;;;;5003529;28;8899;-69
2022/05/30 04:54:18;;;;;;;;;20.50;18.25;31.40;99.90;;;;;;5019560;28;9483;-70
2022/05/30 04:56:45;;;;;;;;;26.00;18.75;32.30;99.90;;;;;;5036942;28;8785;-68
2022/05/30 04:59:12;;;;;;;;;24.50;21.25;33.10;99.50;;;;;;5037303;28;8789;-69
2022/05/30 05:01:38;;;;;;;;;22.25;17.00;32.70;99.90;;;;;;5036832;28;8797;-68
2022/05/30 05:04:06;;;;;;;;;23.25;22.00;33.10;99.90;;;;;;5019653;28;8850;-70
2022/05/30 05:06:33;;;;;;;;;14.00;11.00;32.40;99.90;;;;;;5019722;28;8798;-69
2022/05/30 05:09:05;;;;;;;;;28.25;18.75;32.70;99.60;;;;;;5037468;28;8777;-68
2022/05/30 05:11:33;;;;;;;;;25.25;21.00;31.60;99.90;;;;;;5019352;28;8788;-68
2022/05/30 05:13:59;;;;;;;;;19.50;19.00;32.40;99.90;;;;;;5036415;28;8753;-70
2022/05/30 05:16:29;;;;;;;;;23.00;18.50;33.10;99.90;;;;;;5002498;28;8737;-64
2022/05/30 05:18:56;;;;;;;;;27.40;20.40;33.00;99.80;;;;;;5038310;28;8765;-67
2022/05/30 05:21:24;;;;;;;;;22.50;19.00;32.70;99.90;;;;;;5038404;28;8800;-65
2022/05/30 05:23:51;;;;;;;;;22.75;18.50;33.40;99.90;;;;;;5037690;28;8773;-65
2022/05/30 05:26:18;;;;;;;;;29.00;25.25;33.80;98.70;;;;;;5004194;28;8843;-65
2022/05/30 05:28:45;;;;;;;;;21.50;20.00;33.10;99.60;;;;;;5037367;28;8897;-67
2022/05/30 05:31:25;;;;;;;;;26.00;23.50;32.60;99.90;;;;;;5037937;28;8804;-66
2022/05/30 05:33:52;;;;;;;;;30.00;24.75;32.20;99.90;;;;;;5005069;28;8759;-66
2022/05/30 05:36:24;;;;;;;;;29.50;26.25;32.10;99.90;;;;;;5037346;28;8740;-65
2022/05/30 05:38:51;;;;;;;;;25.75;22.25;32.10;99.90;;;;;;5037836;28;9445;-66
2022/05/30 05:41:18;;;;;;;;;28.75;23.25;32.10;99.90;;;;;;5037626;28;8789;-65
2022/05/30 05:43:54;;;;;;;;;25.50;23.25;32.10;99.90;;;;;;5037577;28;8817;-67
2022/05/30 05:46:23;;;;;;;;;29.75;24.50;32.10;99.90;;;;;;5019383;28;9012;-66
2022/05/30 05:48:54;;;;;;;;;27.50;21.00;32.10;99.60;;;;;;5000091;28;8749;-66
2022/05/30 05:51:21;;;;;;;;;27.00;23.25;32.30;99.60;;;;;;5016009;28;8765;-65
2022/05/30 05:53:48;;;;;;;;;24.25;20.25;32.20;99.30;;;;;;5017681;28;8919;-66
2022/05/30 05:56:19;;;;;;;;;28.75;24.75;32.00;99.60;;;;;;5017327;28;9030;-67
2022/05/30 05:58:46;;;;;;;;;25.25;24.50;32.10;99.90;;;;;;5035442;28;8813;-67
2022/05/30 06:01:18;;;;;;;;;27.25;23.00;32.40;99.90;;;;;;5033652;28;8894;-67
2022/05/30 06:03:44;;;;;;;;;31.50;25.50;32.30;99.50;;;;;;5033547;28;8987;-67
2022/05/30 06:06:12;;;;;;;;;29.50;26.75;32.10;99.80;;;;;;5016387;28;8765;-67
2022/05/30 06:08:42;;;;;;;;;25.50;22.50;32.00;99.90;;;;;;5033803;28;8815;-66
2022/05/30 06:11:09;;;;;;;;;26.50;22.75;32.20;99.90;;;;;;5034092;28;8765;-67
2022/05/30 06:13:40;;;;;;;;;25.75;22.00;32.20;99.30;;;;;;5031979;28;9401;-66
2022/05/30 06:16:31;;;;;;;;;25.50;21.00;32.10;99.60;;;;;;5036003;28;8784;-66
2022/05/30 06:19:00;;;;;;;;;26.75;21.75;32.10;99.90;;;;;;5021123;28;8730;-67
2022/05/30 06:21:28;;;;;;;;;25.25;23.25;32.40;99.90;;;;;;5018196;28;8789;-66
2022/05/30 06:23:55;;;;;;;;;27.25;23.50;32.40;99.90;;;;;;5017605;28;8756;-66
2022/05/30 06:26:21;;;;;;;;;27.75;23.50;32.30;99.10;;;;;;5035070;28;8765;-66
2022/05/30 06:28:48;;;;;;;;;23.25;20.00;32.20;99.90;;;;;;5035651;28;8793;-66
2022/05/30 06:31:17;;;;;;;;;34.50;27.50;32.00;99.90;;;;;;5002553;28;9413;-67
2022/05/30 06:33:44;;;;;;;;;25.25;22.50;32.10;99.90;;;;;;5018251;28;8761;-66
2022/05/30 06:36:12;;;;;;;;;25.75;24.00;32.50;99.90;;;;;;5018290;28;8864;-67
2022/05/30 06:38:39;;;;;;;;;28.25;26.25;32.60;99.80;;;;;;5018287;28;8900;-67
2022/05/30 06:41:16;;;;;;;;;18.75;16.75;32.60;99.70;;;;;;5035909;28;9949;-67
2022/05/30 06:43:44;;;;;;;;;17.50;14.50;32.90;99.90;;;;;;5001958;28;8735;-66
2022/05/30 06:46:11;;;;;;;;;22.75;22.25;32.70;99.00;;;;;;4999979;28;8767;-67
2022/05/30 06:48:38;;;;;;;;;25.00;22.50;32.40;99.70;;;;;;4998470;28;8801;-67
2022/05/30 06:51:12;;;;;;;;;25.75;21.75;32.50;99.90;;;;;;4999186;28;8965;-67
2022/05/30 06:53:43;;;;;;;;;30.75;22.50;32.70;99.90;;;;;;5015724;28;8817;-67
2022/05/30 06:56:14;;;;;;;;;25.50;19.50;32.80;98.30;;;;;;4999338;28;8770;-67
2022/05/30 06:58:45;;;;;;;;;26.25;21.50;32.70;98.80;;;;;;5032646;28;8855;-67
2022/05/30 07:01:11;;;;;;;;;31.00;22.00;32.80;98.40;;;;;;5035919;28;8796;-67
2022/05/30 07:03:39;;;;;;;;;22.25;22.25;32.70;98.60;;;;;;5017144;28;8761;-67
2022/05/30 07:06:10;;;;;;;;;18.50;17.25;32.60;98.50;;;;;;5017960;28;8846;-67
2022/05/30 07:08:37;;;;;;;;;25.00;23.25;32.90;98.30;;;;;;4985656;28;8818;-67
2022/05/30 07:11:06;;;;;;;;;21.75;17.25;33.10;98.40;;;;;;5035576;28;8934;-67
2022/05/30 07:13:33;;;;;;;;;24.25;22.25;32.90;98.40;;;;;;5022047;28;8749;-67
2022/05/30 07:15:59;;;;;;;;;25.00;20.75;32.80;98.20;;;;;;5040202;28;8733;-67
2022/05/30 07:18:26;;;;;;;;;18.00;13.00;32.80;98.20;;;;;;5004887;28;9393;-67
2022/05/30 07:21:00;;;;;;;;;22.25;18.50;32.70;97.80;;;;;;5021681;28;8851;-67
2022/05/30 07:23:27;;;;;;;;;25.25;20.25;32.70;97.80;;;;;;5039341;28;8737;-67
2022/05/30 07:25:58;;;;;;;;;26.00;22.75;32.60;98.20;;;;;;5039617;28;8780;-66
2022/05/30 07:28:28;;;;;;;;;23.20;20.40;32.60;97.80;;;;;;5017740;28;8791;-67
2022/05/30 07:30:56;;;;;;;;;21.50;17.75;32.70;97.30;;;;;;5002760;28;8815;-67
2022/05/30 07:33:23;;;;;;;;;26.50;19.25;32.80;96.60;;;;;;5007161;28;8746;-66
2022/05/30 07:35:50;;;;;;;;;20.50;15.25;32.90;96.40;;;;;;4981156;28;9432;-67
2022/05/30 07:38:16;;;;;;;;;24.75;19.25;32.90;96.30;;;;;;4980202;28;8764;-67
2022/05/30 07:40:43;;;;;;;;;22.75;18.50;32.90;96.90;;;;;;4978351;28;8752;-67
2022/05/30 07:43:12;;;;;;;;;22.50;20.50;32.80;96.80;;;;;;4992648;28;8729;-67
2022/05/30 07:45:39;;;;;;;;;22.25;21.00;32.80;96.90;;;;;;4998949;28;8762;-67
2022/05/30 07:48:06;;;;;;;;;24.50;18.00;32.70;97.10;;;;;;5000029;28;8738;-67
2022/05/30 07:50:35;;;;;;;;;18.25;16.50;32.80;96.80;;;;;;5000108;28;8746;-67
2022/05/30 07:53:01;;;;;;;;;20.25;14.50;32.90;95.50;;;;;;4998092;28;8769;-67
2022/05/30 07:55:29;;;;;;;;;19.25;17.00;33.00;94.90;;;;;;4998945;28;8719;-66
2022/05/30 07:58:04;;;;;;;;;23.75;17.75;33.10;95.10;;;;;;4999960;28;8760;-67
2022/05/30 08:00:35;;;;;;;;;18.50;14.50;33.00;94.90;;;;;;4997774;28;8742;-67
2022/05/30 08:03:02;;;;;;;;;20.75;18.25;32.90;95.70;;;;;;4999721;28;8749;-67
2022/05/30 08:05:29;;;;;;;;;23.00;21.00;33.10;95.20;;;;;;4999192;28;8741;-67
2022/05/30 08:07:56;;;;;;;;;24.50;21.25;33.10;96.20;;;;;;4999355;28;8783;-67
2022/05/30 08:10:23;;;;;;;;;23.00;21.00;33.10;96.50;;;;;;4998592;28;8819;-67
2022/05/30 08:12:49;;;;;;;;;22.50;18.75;32.90;96.90;;;;;;4987751;28;9024;-68
2022/05/30 08:15:16;;;;;;;;;23.00;20.50;33.00;97.10;;;;;;4970694;28;8780;-67
2022/05/30 08:17:43;;;;;;;;;25.25;22.00;33.10;97.00;;;;;;4979500;28;8786;-67
2022/05/30 08:20:11;;;;;;;;;20.50;19.25;33.20;96.90;;;;;;4962398;28;8803;-67
2022/05/30 08:22:38;;;;;;;;;25.50;19.00;33.30;96.30;;;;;;4978602;28;9497;-67
2022/05/30 08:25:08;;;;;;;;;20.50;19.25;33.20;96.90;;;;;;4978990;28;8831;-66
2022/05/30 08:27:35;;;;;;;;;23.25;21.75;33.10;96.80;;;;;;4988641;28;8861;-64
2022/05/30 08:30:01;;;;;;;;;28.00;23.00;33.30;97.80;;;;;;5000299;28;8777;-67
2022/05/30 08:32:39;;;;;;;;;21.25;19.00;33.10;97.60;;;;;;4982536;28;8757;-67
2022/05/30 08:35:07;;;;;;;;;24.00;21.75;33.10;97.70;;;;;;5005721;28;8796;-67
2022/05/30 08:37:33;;;;;;;;;23.50;20.00;33.00;97.50;;;;;;5021871;28;8775;-67
2022/05/30 08:42:54;;;;;;;;;22.50;18.00;33.00;97.70;;;;;;5024585;28;8789;-67
2022/05/30 08:45:21;;;;;;;;;25.25;19.00;33.30;96.40;;;;;;5038342;28;8784;-66
2022/05/30 08:47:55;;;;;;;;;21.50;18.75;33.30;96.60;;;;;;5020877;28;8769;-67
2022/05/30 08:50:24;;;;;;;;;26.50;20.25;33.30;96.50;;;;;;5004981;28;8792;-66
2022/05/30 08:52:54;;;;;;;;;21.50;20.00;33.10;97.00;;;;;;5009536;28;8783;-67
2022/05/30 08:55:47;;;;;;;;;22.75;18.50;33.20;96.70;;;;;;5038240;28;8761;-66
2022/05/30 08:58:43;;;;;;;;;19.50;19.00;33.20;96.70;;;;;;5019284;28;8791;-67
2022/05/30 09:01:20;;;;;;;;;18.75;16.50;33.20;96.60;;;;;;5006106;28;8814;-67
2022/05/30 09:04:16;;;;;;;;;22.25;19.25;33.30;95.90;;;;;;5000152;28;8770;-67
2022/05/30 09:06:44;;;;;;;;;21.25;17.00;33.30;96.40;;;;;;4982156;28;8760;-67
2022/05/30 09:09:38;;;;;;;;;22.00;18.25;33.10;96.70;;;;;;5017660;28;8869;-67
2022/05/30 09:12:15;;;;;;;;;23.00;18.50;33.00;96.60;;;;;;5036221;28;8801;-67
2022/05/30 09:14:54;;;;;;;;;27.00;17.25;33.00;96.10;;;;;;5037889;28;9406;-67
2022/05/30 09:17:25;;;;;;;;;21.75;18.25;33.10;96.10;;;;;;5020193;28;8741;-66
2022/05/30 09:19:53;;;;;;;;;21.75;18.50;33.00;96.40;;;;;;5037577;28;8769;-68
2022/05/30 09:22:21;;;;;;;;;22.75;19.25;33.00;97.00;;;;;;4987818;28;8794;-67
2022/05/30 09:27:33;;;;;;;;;28.50;22.00;33.00;96.80;;;;;;5037093;28;8946;-67
2022/05/30 09:30:00;;;;;;;;;30.25;22.50;33.10;96.90;;;;;;5035744;28;8885;-67
2022/05/30 09:32:54;;;;;;;;;22.00;18.75;33.10;97.00;;;;;;5002822;28;8749;-66
2022/05/30 09:35:31;;;;;;;;;20.50;19.00;33.10;97.20;;;;;;5036137;28;8867;-67
2022/05/30 09:38:21;;;;;;;;;23.00;19.00;33.10;96.60;;;;;;5019485;28;9506;-67
2022/05/30 09:40:52;;;;;;;;;24.75;21.00;33.20;96.50;;;;;;5037324;28;8850;-67
2022/05/30 09:43:27;;;;;;;;;22.75;19.00;33.10;96.30;;;;;;5006732;28;8775;-67
2022/05/30 09:45:54;;;;;;;;;23.80;19.20;33.10;96.70;;;;;;5000035;28;8775;-68
2022/05/30 09:48:21;;;;;;;;;17.80;16.00;33.10;96.90;;;;;;4983696;28;8759;-66
2022/05/30 09:50:57;;;;;;;;;24.75;20.75;33.10;97.30;;;;;;4999563;28;8779;-67
2022/05/30 09:53:45;;;;;;;;;20.50;18.25;33.10;97.40;;;;;;5017852;28;8790;-67
2022/05/30 09:56:14;;;;;;;;;26.50;18.00;33.10;96.90;;;;;;5016537;28;8763;-67
2022/05/30 09:59:00;;;;;;;;;24.75;20.50;33.10;97.20;;;;;;5015922;28;8842;-67
2022/05/30 10:01:27;;;;;;;;;23.25;21.25;32.90;97.60;;;;;;5035595;28;9595;-67
2022/05/30 10:04:00;;;;;;;;;17.50;14.75;32.90;97.60;;;;;;4993263;28;9222;-67
2022/05/30 10:06:28;;;;;;;;;22.25;19.00;32.90;97.10;;;;;;5035323;28;8777;-67
2022/05/30 10:09:15;;;;;;;;;20.50;15.00;33.00;97.00;;;;;;5036751;28;8804;-67
2022/05/30 10:11:42;;;;;;;;;29.00;20.25;33.10;97.10;;;;;;5019389;28;8863;-67
2022/05/30 10:14:21;;;;;;;;;24.00;22.00;33.10;96.90;;;;;;5019509;28;8877;-67
2022/05/30 10:16:47;;;;;;;;;24.00;21.00;33.10;97.40;;;;;;5036846;28;8768;-67
2022/05/30 10:19:28;;;;;;;;;19.50;17.75;33.00;97.40;;;;;;5019717;28;8765;-66
2022/05/30 10:28:39;;;;;;;;;25.50;21.75;32.80;97.30;;;;;;5036270;28;8817;-66
2022/05/30 10:31:26;;;;;;;;;21.00;19.50;32.90;97.50;;;;;;5003061;28;9465;-67
2022/05/30 10:34:35;;;;;;;;;23.25;17.25;32.90;97.00;;;;;;4995539;28;8896;-67
2022/05/30 10:37:02;;;;;;;;;22.00;22.00;32.90;97.40;;;;;;4975829;28;8755;-67
2022/05/30 10:39:38;;;;;;;;;25.75;20.50;32.80;97.30;;;;;;5023430;28;8784;-67
2022/05/30 10:42:14;;;;;;;;;24.50;19.25;32.70;97.80;;;;;;5019106;28;8796;-67
2022/05/30 10:44:46;;;;;;;;;22.75;20.75;32.70;97.70;;;;;;5036209;28;8777;-67
2022/05/30 10:47:22;;;;;;;;;28.50;23.00;32.70;98.00;;;;;;5039167;28;8749;-67
2022/05/30 10:49:56;;;;;;;;;24.00;20.75;32.70;98.60;;;;;;5022732;28;8757;-67
2022/05/30 10:52:37;;;;;;;;;26.00;21.25;32.60;98.80;;;;;;5007604;28;8768;-67
2022/05/30 10:55:32;;;;;;;;;23.00;18.50;32.60;98.00;;;;;;5007871;28;8737;-67
2022/05/30 10:58:02;;;;;;;;;24.00;18.75;32.60;97.80;;;;;;5011997;28;8804;-67
2022/05/30 11:00:41;;;;;;;;;30.00;24.75;32.60;98.00;;;;;;5040257;28;8761;-67
2022/05/30 11:03:32;;;;;;;;;33.00;26.75;32.60;97.90;;;;;;5023067;28;9148;-67
2022/05/30 11:06:09;;;;;;;;;38.75;30.50;32.50;98.20;;;;;;5025247;28;8818;-67
2022/05/30 11:08:59;;;;;;;;;35.00;30.00;32.60;98.30;;;;;;5022256;28;8757;-67
2022/05/30 11:11:44;;;;;;;;;35.75;27.25;32.60;98.80;;;;;;5039831;28;8846;-67
2022/05/30 11:14:32;;;;;;;;;35.00;25.50;32.60;98.70;;;;;;5020353;28;8759;-67
2022/05/30 11:17:18;;;;;;;;;29.25;25.50;32.50;98.70;;;;;;5020263;28;8747;-67
2022/05/30 11:20:04;;;;;;;;;28.50;22.75;32.40;99.30;;;;;;5018596;28;8866;-67
2022/05/30 11:22:52;;;;;;;;;26.25;22.50;32.40;99.20;;;;;;4987321;28;8803;-67
2022/05/30 11:25:33;;;;;;;;;23.00;20.50;32.40;99.30;;;;;;5021186;28;8759;-66
2022/05/30 11:28:12;;;;;;;;;66.20;50.40;32.40;99.50;;;;;;5031819;28;8908;-67
2022/05/30 11:30:42;;;;;;;;;43.75;33.50;32.40;99.70;;;;;;5040155;28;8784;-67
2022/05/30 11:33:15;;;;;;;;;27.25;23.50;32.30;99.60;;;;;;5040230;28;8803;-67
2022/05/30 11:36:08;;;;;;;;;29.50;24.25;32.30;99.70;;;;;;5031962;28;8777;-67
2022/05/30 11:38:47;;;;;;;;;33.25;25.50;32.20;99.90;;;;;;5024905;28;8764;-67
2022/05/30 11:41:57;;;;;;;;;17.50;14.50;32.10;99.90;;;;;;5040309;28;9074;-67
2022/05/30 11:44:33;;;;;;;;;27.00;20.75;32.10;99.90;;;;;;4929371;29;8779;-66
2022/05/30 11:47:21;;;;;;;;;25.00;21.75;32.10;99.90;;;;;;4976473;28;8754;-67
2022/05/30 11:50:07;;;;;;;;;27.00;22.75;32.10;99.90;;;;;;5020287;28;8791;-67
2022/05/30 11:53:00;;;;;;;;;28.25;25.25;32.00;99.90;;;;;;5019213;28;8785;-67
2022/05/30 11:55:43;;;;;;;;;26.50;23.00;32.00;99.90;;;;;;5004153;28;8871;-67
2022/05/30 11:58:12;;;;;;;;;29.50;25.50;31.90;99.90;;;;;;5010095;28;8775;-67
2022/05/30 12:00:48;;;;;;;;;28.25;23.75;31.90;99.90;;;;;;5001309;28;8885;-67
2022/05/30 12:03:24;;;;;;;;;22.25;21.00;31.80;99.90;;;;;;5019621;28;8860;-67
2022/05/30 12:06:00;;;;;;;;;30.25;25.25;31.80;99.90;;;;;;5002175;28;8790;-67
2022/05/30 12:08:48;;;;;;;;;30.50;26.75;31.70;99.90;;;;;;5019161;28;8751;-67
2022/05/30 12:11:40;;;;;;;;;33.75;28.00;31.70;99.90;;;;;;5019713;28;8803;-67
2022/05/30 12:14:07;;;;;;;;;39.00;31.00;31.70;99.90;;;;;;5004630;28;8767;-67
2022/05/30 12:16:59;;;;;;;;;38.00;32.25;31.60;99.90;;;;;;5018316;28;8739;-67
2022/05/30 12:25:34;;;;;;;;;112.20;93.20;31.60;99.90;;;;;;5019342;28;8764;-67
2022/05/30 12:28:22;;;;;;;;;282.75;225.50;31.50;99.90;;;;;;5030030;28;8859;-67
2022/05/30 12:30:48;;;;;;;;;292.75;242.00;31.50;99.90;;;;;;4974956;28;11545;-67
2022/05/30 12:33:33;;;;;;;;;185.25;156.00;31.50;99.90;;;;;;5004455;28;11569;-67
2022/05/30 12:36:13;;;;;;;;;54.50;39.75;31.60;99.90;;;;;;5038185;28;9608;-67
2022/05/30 12:39:02;;;;;;;;;37.00;30.50;31.60;99.90;;;;;;5039589;28;9519;-67
2022/05/30 12:41:39;;;;;;;;;43.25;34.75;31.60;99.90;;;;;;5021377;28;10045;-67
2022/05/30 12:44:45;;;;;;;;;39.00;32.00;31.60;99.90;;;;;;5018656;28;8759;-67
2022/05/30 12:47:18;;;;;;;;;45.00;33.75;31.60;99.90;;;;;;5018358;28;8773;-67
2022/05/30 12:49:49;;;;;;;;;74.40;61.60;31.60;99.90;;;;;;5018709;28;8783;-67
2022/05/30 12:52:17;;;;;;;;;77.60;63.80;31.60;99.90;;;;;;5017472;28;8897;-67
2022/05/30 12:54:57;;;;;;;;;76.60;57.20;31.50;99.90;;;;;;5000654;28;9447;-67
2022/05/30 12:57:35;;;;;;;;;64.80;52.60;31.60;99.90;;;;;;5018440;28;9403;-67
2022/05/30 13:00:25;;;;;;;;;37.25;30.75;31.60;99.90;;;;;;5017403;28;9412;-67
2022/05/30 13:02:56;;;;;;;;;30.50;27.25;31.20;99.90;;;;;;4982025;28;8821;-66
2022/05/30 13:05:58;;;;;;;;;20.00;20.00;31.00;99.90;;;;;;5018269;28;8766;-66
2022/05/30 13:08:55;;;;;;;;;19.25;18.75;30.90;99.90;;;;;;5014863;28;8743;-67
2022/05/30 13:11:37;;;;;;;;;20.75;18.00;30.80;99.90;;;;;;5018183;28;8928;-66
2022/05/30 13:14:20;;;;;;;;;16.20;12.80;30.70;99.90;;;;;;5036252;28;8749;-67
2022/05/30 13:16:47;;;;;;;;;14.40;10.80;30.60;99.90;;;;;;5023040;28;8764;-67
2022/05/30 13:19:15;;;;;;;;;9.80;8.20;30.50;99.90;;;;;;5039199;28;8750;-67
2022/05/30 13:21:52;;;;;;;;;10.00;7.80;30.50;99.90;;;;;;5020058;28;8785;-66
2022/05/30 13:24:32;;;;;;;;;12.80;10.80;30.40;99.90;;;;;;5021822;28;8777;-64
2022/05/30 13:27:00;;;;;;;;;8.20;7.20;30.60;99.90;;;;;;5038211;28;8796;-67
2022/05/30 13:29:38;;;;;;;;;12.20;10.20;30.60;99.90;;;;;;5037944;28;9330;-67